sensor_id;sensor_type;location;lat;lon;timestamp;temperature;humidity
4985;DHT22;2509;49.902;8.600;2022-12-18T00:02:11;-6.90;99.90
4985;DHT22;2509;49.902;8.600;2022-12-18T00:05:13;-6.90;99.90
4985;DHT22;2509;49.902;8.600;2022-12-18T00:08:15;-7.00;99.90
4985;DHT22;2509;49.902;8.600;2022-12-18T00:11:20;-7.00;99.90
4985;DHT22;2509;49.902;8.600;2022-12-18T00:14:22;-7.00;99.90
4985;DHT22;2509;49.902;8.600;2022-12-18T00:17:24;-7.00;99.90
4985;DHT22;2509;49.902;8.600;2022-12-18T00:20:26;-7.00;99.90
4985;DHT22;2509;49.902;8.600;2022-12-18T00:23:28;-7.00;99.90
4985;DHT22;2509;49.902;8.600;2022-12-18T00:26:32;-7.10;99.90
4985;DHT22;2509;49.902;8.600;2022-12-18T00:29:34;-7.20;99.90
4985;DHT22;2509;49.902;8.600;2022-12-18T00:32:36;-7.20;99.90
4985;DHT22;2509;49.902;8.600;2022-12-18T00:35:38;-7.10;99.90
4985;DHT22;2509;49.902;8.600;2022-12-18T00:38:41;-7.10;99.90
4985;DHT22;2509;49.902;8.600;2022-12-18T00:41:44;-7.20;99.90
4985;DHT22;2509;49.902;8.600;2022-12-18T00:45:04;-7.30;99.90
4985;DHT22;2509;49.902;8.600;2022-12-18T00:48:05;-7.40;99.90
4985;DHT22;2509;49.902;8.600;2022-12-18T00:51:07;-7.40;99.90
4985;DHT22;2509;49.902;8.600;2022-12-18T00:54:09;-7.40;99.90
4985;DHT22;2509;49.902;8.600;2022-12-18T00:57:12;-7.30;99.90
4985;DHT22;2509;49.902;8.600;2022-12-18T01:00:15;-7.30;99.90
4985;DHT22;2509;49.902;8.600;2022-12-18T01:03:16;-7.30;99.90
4985;DHT22;2509;49.902;8.600;2022-12-18T01:06:18;-7.40;99.90
4985;DHT22;2509;49.902;8.600;2022-12-18T01:09:20;-7.40;99.90
4985;DHT22;2509;49.902;8.600;2022-12-18T01:12:23;-7.40;99.90
4985;DHT22;2509;49.902;8.600;2022-12-18T01:15:25;-7.60;99.90
4985;DHT22;2509;49.902;8.600;2022-12-18T01:18:26;-7.70;99.90
4985;DHT22;2509;49.902;8.600;2022-12-18T01:21:28;-7.60;99.90
4985;DHT22;2509;49.902;8.600;2022-12-18T01:24:30;-7.60;99.90
4985;DHT22;2509;49.902;8.600;2022-12-18T01:27:34;-7.60;99.90
4985;DHT22;2509;49.902;8.600;2022-12-18T01:30:36;-7.60;99.90
4985;DHT22;2509;49.902;8.600;2022-12-18T01:33:37;-7.60;99.90
4985;DHT22;2509;49.902;8.600;2022-12-18T01:36:39;-7.70;99.90
4985;DHT22;2509;49.902;8.600;2022-12-18T01:39:41;-7.70;99.90
4985;DHT22;2509;49.902;8.600;2022-12-18T01:42:45;-7.70;99.90
4985;DHT22;2509;49.902;8.600;2022-12-18T01:45:50;-7.60;99.90
4985;DHT22;2509;49.902;8.600;2022-12-18T01:48:54;-7.60;99.90
4985;DHT22;2509;49.902;8.600;2022-12-18T01:51:56;-7.60;99.90
4985;DHT22;2509;49.902;8.600;2022-12-18T01:54:59;-7.60;99.90
4985;DHT22;2509;49.902;8.600;2022-12-18T01:58:03;-7.60;99.90
4985;DHT22;2509;49.902;8.600;2022-12-18T02:01:05;-7.60;99.90
4985;DHT22;2509;49.902;8.600;2022-12-18T02:04:23;-7.60;99.90
4985;DHT22;2509;49.902;8.600;2022-12-18T02:07:33;-7.60;99.90
4985;DHT22;2509;49.902;8.600;2022-12-18T02:10:43;-7.70;99.90
4985;DHT22;2509;49.902;8.600;2022-12-18T02:13:54;-7.70;99.90
4985;DHT22;2509;49.902;8.600;2022-12-18T02:17:03;-7.70;99.90
4985;DHT22;2509;49.902;8.600;2022-12-18T02:20:13;-7.70;99.90
4985;DHT22;2509;49.902;8.600;2022-12-18T02:23:24;-7.60;99.90
4985;DHT22;2509;49.902;8.600;2022-12-18T02:26:33;-7.60;99.90
4985;DHT22;2509;49.902;8.600;2022-12-18T02:29:41;-7.60;99.90
4985;DHT22;2509;49.902;8.600;2022-12-18T02:32:47;-7.60;99.90
4985;DHT22;2509;49.902;8.600;2022-12-18T02:35:52;-7.60;99.90
4985;DHT22;2509;49.902;8.600;2022-12-18T02:38:56;-7.60;99.90
4985;DHT22;2509;49.902;8.600;2022-12-18T02:42:01;-7.50;99.90
4985;DHT22;2509;49.902;8.600;2022-12-18T02:45:08;-7.50;99.90
4985;DHT22;2509;49.902;8.600;2022-12-18T02:48:10;-7.60;99.90
4985;DHT22;2509;49.902;8.600;2022-12-18T02:51:20;-7.60;99.90
4985;DHT22;2509;49.902;8.600;2022-12-18T02:54:38;-7.80;99.90
4985;DHT22;2509;49.902;8.600;2022-12-18T02:57:49;-7.80;99.90
4985;DHT22;2509;49.902;8.600;2022-12-18T03:00:59;-7.80;99.90
4985;DHT22;2509;49.902;8.600;2022-12-18T03:04:07;-7.80;99.90
4985;DHT22;2509;49.902;8.600;2022-12-18T03:07:15;-7.80;99.90
4985;DHT22;2509;49.902;8.600;2022-12-18T03:10:23;-7.80;99.90
4985;DHT22;2509;49.902;8.600;2022-12-18T03:13:31;-7.70;99.90
4985;DHT22;2509;49.902;8.600;2022-12-18T03:16:35;-7.80;99.90
4985;DHT22;2509;49.902;8.600;2022-12-18T03:19:38;-7.80;99.90
4985;DHT22;2509;49.902;8.600;2022-12-18T03:22:43;-7.70;99.90
4985;DHT22;2509;49.902;8.600;2022-12-18T03:25:47;-7.70;99.90
4985;DHT22;2509;49.902;8.600;2022-12-18T03:28:55;-7.70;99.90
4985;DHT22;2509;49.902;8.600;2022-12-18T03:32:04;-7.70;99.90
4985;DHT22;2509;49.902;8.600;2022-12-18T03:35:10;-7.70;99.90
4985;DHT22;2509;49.902;8.600;2022-12-18T03:38:12;-7.70;99.90
4985;DHT22;2509;49.902;8.600;2022-12-18T03:41:19;-7.60;99.90
4985;DHT22;2509;49.902;8.600;2022-12-18T03:44:29;-7.60;99.90
4985;DHT22;2509;49.902;8.600;2022-12-18T03:47:37;-7.60;99.90
4985;DHT22;2509;49.902;8.600;2022-12-18T03:50:44;-7.60;99.90
4985;DHT22;2509;49.902;8.600;2022-12-18T03:53:52;-7.60;99.90
4985;DHT22;2509;49.902;8.600;2022-12-18T03:56:59;-7.60;99.90
4985;DHT22;2509;49.902;8.600;2022-12-18T04:00:07;-7.60;99.90
4985;DHT22;2509;49.902;8.600;2022-12-18T04:03:10;-7.50;99.90
4985;DHT22;2509;49.902;8.600;2022-12-18T04:06:13;-7.50;99.90
4985;DHT22;2509;49.902;8.600;2022-12-18T04:09:16;-7.50;99.90
4985;DHT22;2509;49.902;8.600;2022-12-18T04:12:18;-7.60;99.90
4985;DHT22;2509;49.902;8.600;2022-12-18T04:15:21;-7.60;99.90
4985;DHT22;2509;49.902;8.600;2022-12-18T04:18:23;-7.60;99.90
4985;DHT22;2509;49.902;8.600;2022-12-18T04:21:24;-7.60;99.90
4985;DHT22;2509;49.902;8.600;2022-12-18T04:24:26;-7.50;99.90
4985;DHT22;2509;49.902;8.600;2022-12-18T04:27:28;-7.60;99.90
4985;DHT22;2509;49.902;8.600;2022-12-18T04:30:31;-7.60;99.90
4985;DHT22;2509;49.902;8.600;2022-12-18T04:33:33;-7.60;99.90
4985;DHT22;2509;49.902;8.600;2022-12-18T04:36:35;-7.50;99.90
4985;DHT22;2509;49.902;8.600;2022-12-18T04:39:37;-7.40;99.90
4985;DHT22;2509;49.902;8.600;2022-12-18T04:42:39;-7.40;99.90
4985;DHT22;2509;49.902;8.600;2022-12-18T04:45:42;-7.30;99.90
4985;DHT22;2509;49.902;8.600;2022-12-18T04:48:45;-7.20;99.90
4985;DHT22;2509;49.902;8.600;2022-12-18T04:51:47;-7.20;99.90
4985;DHT22;2509;49.902;8.600;2022-12-18T04:54:49;-7.30;99.90
4985;DHT22;2509;49.902;8.600;2022-12-18T04:57:51;-7.30;99.90
4985;DHT22;2509;49.902;8.600;2022-12-18T05:00:54;-7.30;99.90
4985;DHT22;2509;49.902;8.600;2022-12-18T05:03:55;-7.20;99.90
4985;DHT22;2509;49.902;8.600;2022-12-18T05:06:57;-7.10;99.90
4985;DHT22;2509;49.902;8.600;2022-12-18T05:09:59;-7.10;99.90
4985;DHT22;2509;49.902;8.600;2022-12-18T05:13:01;-7.10;99.90
4985;DHT22;2509;49.902;8.600;2022-12-18T05:16:05;-7.10;99.90
4985;DHT22;2509;49.902;8.600;2022-12-18T05:19:07;-7.20;99.90
4985;DHT22;2509;49.902;8.600;2022-12-18T05:22:09;-7.20;99.90
4985;DHT22;2509;49.902;8.600;2022-12-18T05:25:11;-7.30;99.90
4985;DHT22;2509;49.902;8.600;2022-12-18T05:28:12;-7.30;99.90
4985;DHT22;2509;49.902;8.600;2022-12-18T05:31:16;-7.40;99.90
4985;DHT22;2509;49.902;8.600;2022-12-18T05:34:18;-7.50;99.90
4985;DHT22;2509;49.902;8.600;2022-12-18T05:37:19;-7.50;99.90
4985;DHT22;2509;49.902;8.600;2022-12-18T05:40:21;-7.40;99.90
4985;DHT22;2509;49.902;8.600;2022-12-18T05:43:24;-7.40;99.90
4985;DHT22;2509;49.902;8.600;2022-12-18T05:46:27;-7.40;99.90
4985;DHT22;2509;49.902;8.600;2022-12-18T05:49:29;-7.40;99.90
4985;DHT22;2509;49.902;8.600;2022-12-18T05:52:31;-7.50;99.90
4985;DHT22;2509;49.902;8.600;2022-12-18T05:55:33;-7.50;99.90
4985;DHT22;2509;49.902;8.600;2022-12-18T05:58:35;-7.60;99.90
4985;DHT22;2509;49.902;8.600;2022-12-18T06:01:39;-7.60;99.90
4985;DHT22;2509;49.902;8.600;2022-12-18T06:04:41;-7.60;99.90
4985;DHT22;2509;49.902;8.600;2022-12-18T06:07:42;-7.60;99.90
4985;DHT22;2509;49.902;8.600;2022-12-18T06:10:50;-7.60;99.90
4985;DHT22;2509;49.902;8.600;2022-12-18T06:13:54;-7.60;99.90
4985;DHT22;2509;49.902;8.600;2022-12-18T06:16:57;-7.60;99.90
4985;DHT22;2509;49.902;8.600;2022-12-18T06:19:59;-7.50;99.90
4985;DHT22;2509;49.902;8.600;2022-12-18T06:23:01;-7.50;99.90
4985;DHT22;2509;49.902;8.600;2022-12-18T06:26:04;-7.50;99.90
4985;DHT22;2509;49.902;8.600;2022-12-18T06:29:06;-7.50;99.90
4985;DHT22;2509;49.902;8.600;2022-12-18T06:32:10;-7.50;99.90
4985;DHT22;2509;49.902;8.600;2022-12-18T06:35:11;-7.50;99.90
4985;DHT22;2509;49.902;8.600;2022-12-18T06:38:13;-7.50;99.90
4985;DHT22;2509;49.902;8.600;2022-12-18T06:41:16;-7.60;99.90
4985;DHT22;2509;49.902;8.600;2022-12-18T06:44:18;-7.60;99.90
4985;DHT22;2509;49.902;8.600;2022-12-18T06:47:22;-7.60;99.90
4985;DHT22;2509;49.902;8.600;2022-12-18T06:50:23;-7.80;99.90
4985;DHT22;2509;49.902;8.600;2022-12-18T06:53:25;-7.90;99.90
4985;DHT22;2509;49.902;8.600;2022-12-18T06:56:27;-8.00;99.90
4985;DHT22;2509;49.902;8.600;2022-12-18T06:59:29;-8.20;99.90
4985;DHT22;2509;49.902;8.600;2022-12-18T07:02:32;-8.20;99.90
4985;DHT22;2509;49.902;8.600;2022-12-18T07:05:34;-8.30;99.90
4985;DHT22;2509;49.902;8.600;2022-12-18T07:08:40;-8.30;99.90
4985;DHT22;2509;49.902;8.600;2022-12-18T07:11:42;-8.30;99.90
4985;DHT22;2509;49.902;8.600;2022-12-18T07:14:44;-8.40;99.90
4985;DHT22;2509;49.902;8.600;2022-12-18T07:17:47;-8.50;99.90
4985;DHT22;2509;49.902;8.600;2022-12-18T07:20:48;-8.50;99.90
4985;DHT22;2509;49.902;8.600;2022-12-18T07:23:50;-8.60;99.90
4985;DHT22;2509;49.902;8.600;2022-12-18T07:26:52;-8.70;99.90
4985;DHT22;2509;49.902;8.600;2022-12-18T07:29:54;-8.70;99.90
4985;DHT22;2509;49.902;8.600;2022-12-18T07:32:57;-8.70;99.90
4985;DHT22;2509;49.902;8.600;2022-12-18T07:35:59;-8.70;99.90
4985;DHT22;2509;49.902;8.600;2022-12-18T07:39:00;-8.70;99.90
4985;DHT22;2509;49.902;8.600;2022-12-18T07:42:02;-8.80;99.90
4985;DHT22;2509;49.902;8.600;2022-12-18T07:45:22;-8.70;99.90
4985;DHT22;2509;49.902;8.600;2022-12-18T07:48:25;-8.60;99.90
4985;DHT22;2509;49.902;8.600;2022-12-18T07:51:26;-8.60;99.90
4985;DHT22;2509;49.902;8.600;2022-12-18T07:54:28;-8.50;99.90
4985;DHT22;2509;49.902;8.600;2022-12-18T07:57:30;-8.60;99.90
4985;DHT22;2509;49.902;8.600;2022-12-18T08:00:31;-8.60;99.90
4985;DHT22;2509;49.902;8.600;2022-12-18T08:03:35;-8.70;99.90
4985;DHT22;2509;49.902;8.600;2022-12-18T08:06:37;-8.80;99.90
4985;DHT22;2509;49.902;8.600;2022-12-18T08:09:39;-8.90;99.90
4985;DHT22;2509;49.902;8.600;2022-12-18T08:12:41;-8.90;99.90
4985;DHT22;2509;49.902;8.600;2022-12-18T08:15:42;-8.90;99.90
4985;DHT22;2509;49.902;8.600;2022-12-18T08:18:45;-8.90;99.90
4985;DHT22;2509;49.902;8.600;2022-12-18T08:21:47;-8.90;99.90
4985;DHT22;2509;49.902;8.600;2022-12-18T08:24:50;-8.90;99.90
4985;DHT22;2509;49.902;8.600;2022-12-18T08:27:52;-8.90;99.90
4985;DHT22;2509;49.902;8.600;2022-12-18T08:30:54;-8.90;99.90
4985;DHT22;2509;49.902;8.600;2022-12-18T08:33:57;-8.90;99.90
4985;DHT22;2509;49.902;8.600;2022-12-18T08:36:59;-8.80;99.90
4985;DHT22;2509;49.902;8.600;2022-12-18T08:40:00;-8.80;99.90
4985;DHT22;2509;49.902;8.600;2022-12-18T08:43:02;-8.70;99.90
4985;DHT22;2509;49.902;8.600;2022-12-18T08:46:23;-8.60;99.90
4985;DHT22;2509;49.902;8.600;2022-12-18T08:49:26;-8.40;99.90
4985;DHT22;2509;49.902;8.600;2022-12-18T08:52:28;-8.40;99.90
4985;DHT22;2509;49.902;8.600;2022-12-18T08:55:30;-8.40;99.90
4985;DHT22;2509;49.902;8.600;2022-12-18T08:58:31;-8.30;99.90
4985;DHT22;2509;49.902;8.600;2022-12-18T09:01:33;-8.10;99.90
4985;DHT22;2509;49.902;8.600;2022-12-18T09:04:36;-8.00;99.90
4985;DHT22;2509;49.902;8.600;2022-12-18T09:07:38;-7.80;99.90
4985;DHT22;2509;49.902;8.600;2022-12-18T09:10:41;-7.80;99.90
4985;DHT22;2509;49.902;8.600;2022-12-18T09:13:43;-7.70;99.90
4985;DHT22;2509;49.902;8.600;2022-12-18T09:16:45;-7.50;99.90
4985;DHT22;2509;49.902;8.600;2022-12-18T09:19:48;-7.30;99.90
4985;DHT22;2509;49.902;8.600;2022-12-18T09:22:50;-7.00;99.90
4985;DHT22;2509;49.902;8.600;2022-12-18T09:25:51;-6.80;99.90
4985;DHT22;2509;49.902;8.600;2022-12-18T09:28:53;-6.60;99.90
4985;DHT22;2509;49.902;8.600;2022-12-18T09:31:56;-6.40;99.90
4985;DHT22;2509;49.902;8.600;2022-12-18T09:34:59;-6.20;99.90
4985;DHT22;2509;49.902;8.600;2022-12-18T09:38:01;-6.10;99.90
4985;DHT22;2509;49.902;8.600;2022-12-18T09:41:05;-5.90;99.90
4985;DHT22;2509;49.902;8.600;2022-12-18T09:44:21;-5.70;99.90
4985;DHT22;2509;49.902;8.600;2022-12-18T09:47:27;-5.50;99.90
4985;DHT22;2509;49.902;8.600;2022-12-18T09:50:34;-5.40;99.90
4985;DHT22;2509;49.902;8.600;2022-12-18T09:53:37;-5.20;99.90
4985;DHT22;2509;49.902;8.600;2022-12-18T09:56:41;-5.00;99.90
4985;DHT22;2509;49.902;8.600;2022-12-18T09:59:47;-4.80;99.90
4985;DHT22;2509;49.902;8.600;2022-12-18T10:02:53;-4.70;99.90
4985;DHT22;2509;49.902;8.600;2022-12-18T10:06:04;-4.50;99.90
4985;DHT22;2509;49.902;8.600;2022-12-18T10:09:15;-4.30;99.90
4985;DHT22;2509;49.902;8.600;2022-12-18T10:12:25;-4.00;99.90
4985;DHT22;2509;49.902;8.600;2022-12-18T10:15:37;-3.90;99.90
4985;DHT22;2509;49.902;8.600;2022-12-18T10:19:02;-3.70;99.90
4985;DHT22;2509;49.902;8.600;2022-12-18T10:22:15;-3.60;99.90
4985;DHT22;2509;49.902;8.600;2022-12-18T10:25:24;-3.40;99.90
4985;DHT22;2509;49.902;8.600;2022-12-18T10:28:27;-3.20;99.90
4985;DHT22;2509;49.902;8.600;2022-12-18T10:31:30;-3.10;99.90
4985;DHT22;2509;49.902;8.600;2022-12-18T10:34:32;-3.00;99.90
4985;DHT22;2509;49.902;8.600;2022-12-18T10:37:35;-2.90;99.90
4985;DHT22;2509;49.902;8.600;2022-12-18T10:40:48;-3.00;99.90
4985;DHT22;2509;49.902;8.600;2022-12-18T10:44:11;-3.00;99.90
4985;DHT22;2509;49.902;8.600;2022-12-18T10:47:15;-3.10;99.90
4985;DHT22;2509;49.902;8.600;2022-12-18T10:50:24;-3.10;99.90
4985;DHT22;2509;49.902;8.600;2022-12-18T10:53:30;-3.10;99.90
4985;DHT22;2509;49.902;8.600;2022-12-18T10:56:34;-3.10;99.90
4985;DHT22;2509;49.902;8.600;2022-12-18T10:59:50;-3.30;99.90
4985;DHT22;2509;49.902;8.600;2022-12-18T11:02:52;-3.30;99.90
4985;DHT22;2509;49.902;8.600;2022-12-18T11:06:02;-3.30;99.90
4985;DHT22;2509;49.902;8.600;2022-12-18T11:09:19;-3.30;99.90
4985;DHT22;2509;49.902;8.600;2022-12-18T11:12:22;-3.20;99.90
4985;DHT22;2509;49.902;8.600;2022-12-18T11:15:27;-3.20;99.90
4985;DHT22;2509;49.902;8.600;2022-12-18T11:18:33;-3.10;99.90
4985;DHT22;2509;49.902;8.600;2022-12-18T11:21:39;-2.90;99.90
4985;DHT22;2509;49.902;8.600;2022-12-18T11:24:42;-2.70;99.90
4985;DHT22;2509;49.902;8.600;2022-12-18T11:27:48;-2.60;99.90
4985;DHT22;2509;49.902;8.600;2022-12-18T11:31:09;-2.60;99.90
4985;DHT22;2509;49.902;8.600;2022-12-18T11:34:15;-2.50;99.90
4985;DHT22;2509;49.902;8.600;2022-12-18T11:37:18;-2.30;99.90
4985;DHT22;2509;49.902;8.600;2022-12-18T11:40:26;-2.20;99.90
4985;DHT22;2509;49.902;8.600;2022-12-18T11:43:31;-2.40;99.90
4985;DHT22;2509;49.902;8.600;2022-12-18T11:46:37;-2.40;99.90
4985;DHT22;2509;49.902;8.600;2022-12-18T11:49:41;-2.20;99.90
4985;DHT22;2509;49.902;8.600;2022-12-18T11:52:45;-2.10;99.90
4985;DHT22;2509;49.902;8.600;2022-12-18T11:55:58;-2.10;99.90
4985;DHT22;2509;49.902;8.600;2022-12-18T11:59:08;-2.20;99.90
4985;DHT22;2509;49.902;8.600;2022-12-18T12:02:28;-2.10;99.90
4985;DHT22;2509;49.902;8.600;2022-12-18T12:05:43;-2.20;99.90
4985;DHT22;2509;49.902;8.600;2022-12-18T12:08:56;-2.10;99.90
4985;DHT22;2509;49.902;8.600;2022-12-18T12:12:16;-2.10;99.90
4985;DHT22;2509;49.902;8.600;2022-12-18T12:15:28;-2.00;99.90
4985;DHT22;2509;49.902;8.600;2022-12-18T12:18:43;-2.00;99.90
4985;DHT22;2509;49.902;8.600;2022-12-18T12:21:50;-2.20;99.90
4985;DHT22;2509;49.902;8.600;2022-12-18T12:25:12;-2.10;99.90
4985;DHT22;2509;49.902;8.600;2022-12-18T12:28:24;-2.10;99.90
4985;DHT22;2509;49.902;8.600;2022-12-18T12:31:44;-2.20;99.90
4985;DHT22;2509;49.902;8.600;2022-12-18T12:34:55;-2.10;99.90
4985;DHT22;2509;49.902;8.600;2022-12-18T12:38:08;-2.00;99.90
4985;DHT22;2509;49.902;8.600;2022-12-18T12:41:14;-2.00;99.90
4985;DHT22;2509;49.902;8.600;2022-12-18T12:44:39;-1.90;99.90
4985;DHT22;2509;49.902;8.600;2022-12-18T12:47:43;-2.00;99.90
4985;DHT22;2509;49.902;8.600;2022-12-18T12:50:46;-2.00;99.90
4985;DHT22;2509;49.902;8.600;2022-12-18T12:53:49;-2.00;99.90
4985;DHT22;2509;49.902;8.600;2022-12-18T12:56:56;-2.10;99.90
4985;DHT22;2509;49.902;8.600;2022-12-18T13:00:06;-2.20;99.90
4985;DHT22;2509;49.902;8.600;2022-12-18T13:03:15;-2.20;99.90
4985;DHT22;2509;49.902;8.600;2022-12-18T13:06:29;-2.20;99.90
4985;DHT22;2509;49.902;8.600;2022-12-18T13:09:34;-2.30;99.90
4985;DHT22;2509;49.902;8.600;2022-12-18T13:12:36;-2.20;99.90
4985;DHT22;2509;49.902;8.600;2022-12-18T13:16:06;-2.20;99.90
4985;DHT22;2509;49.902;8.600;2022-12-18T13:19:23;-2.30;99.90
4985;DHT22;2509;49.902;8.600;2022-12-18T13:22:30;-2.30;99.90
4985;DHT22;2509;49.902;8.600;2022-12-18T13:25:34;-2.30;99.90
4985;DHT22;2509;49.902;8.600;2022-12-18T13:28:51;-2.30;99.90
4985;DHT22;2509;49.902;8.600;2022-12-18T13:32:00;-2.30;99.90
4985;DHT22;2509;49.902;8.600;2022-12-18T13:35:38;-2.20;99.90
4985;DHT22;2509;49.902;8.600;2022-12-18T13:38:40;-2.20;99.90
4985;DHT22;2509;49.902;8.600;2022-12-18T13:41:43;-2.20;99.90
4985;DHT22;2509;49.902;8.600;2022-12-18T13:44:45;-2.20;99.90
4985;DHT22;2509;49.902;8.600;2022-12-18T13:47:49;-2.10;99.90
4985;DHT22;2509;49.902;8.600;2022-12-18T13:50:55;-2.10;99.90
4985;DHT22;2509;49.902;8.600;2022-12-18T13:54:00;-2.10;99.90
4985;DHT22;2509;49.902;8.600;2022-12-18T13:57:04;-2.10;99.90
4985;DHT22;2509;49.902;8.600;2022-12-18T14:00:24;-2.20;99.90
4985;DHT22;2509;49.902;8.600;2022-12-18T14:03:30;-2.20;99.90
4985;DHT22;2509;49.902;8.600;2022-12-18T14:06:31;-2.20;99.90
4985;DHT22;2509;49.902;8.600;2022-12-18T14:09:36;-2.20;99.90
4985;DHT22;2509;49.902;8.600;2022-12-18T14:12:38;-2.30;99.90
4985;DHT22;2509;49.902;8.600;2022-12-18T14:16:00;-2.30;99.90
4985;DHT22;2509;49.902;8.600;2022-12-18T14:19:04;-2.30;99.90
4985;DHT22;2509;49.902;8.600;2022-12-18T14:22:13;-2.30;99.90
4985;DHT22;2509;49.902;8.600;2022-12-18T14:25:19;-2.40;99.90
4985;DHT22;2509;49.902;8.600;2022-12-18T14:28:20;-2.40;99.90
4985;DHT22;2509;49.902;8.600;2022-12-18T14:31:25;-2.40;99.90
4985;DHT22;2509;49.902;8.600;2022-12-18T14:34:28;-2.40;99.90
4985;DHT22;2509;49.902;8.600;2022-12-18T14:37:30;-2.40;99.90
4985;DHT22;2509;49.902;8.600;2022-12-18T14:40:31;-2.40;99.90
4985;DHT22;2509;49.902;8.600;2022-12-18T14:43:35;-2.50;99.90
4985;DHT22;2509;49.902;8.600;2022-12-18T14:46:38;-2.50;99.90
4985;DHT22;2509;49.902;8.600;2022-12-18T14:49:44;-2.50;99.90
4985;DHT22;2509;49.902;8.600;2022-12-18T14:52:46;-2.50;99.90
4985;DHT22;2509;49.902;8.600;2022-12-18T14:55:48;-2.50;99.90
4985;DHT22;2509;49.902;8.600;2022-12-18T14:58:53;-2.50;99.90
4985;DHT22;2509;49.902;8.600;2022-12-18T15:02:03;-2.60;99.90
4985;DHT22;2509;49.902;8.600;2022-12-18T15:05:17;-2.60;99.90
4985;DHT22;2509;49.902;8.600;2022-12-18T15:08:36;-2.60;99.90
4985;DHT22;2509;49.902;8.600;2022-12-18T15:11:46;-2.60;99.90
4985;DHT22;2509;49.902;8.600;2022-12-18T15:14:48;-2.70;99.90
4985;DHT22;2509;49.902;8.600;2022-12-18T15:17:56;-2.70;99.90
4985;DHT22;2509;49.902;8.600;2022-12-18T15:21:07;-2.70;99.90
4985;DHT22;2509;49.902;8.600;2022-12-18T15:24:16;-2.70;99.90
4985;DHT22;2509;49.902;8.600;2022-12-18T15:27:30;-2.70;99.90
4985;DHT22;2509;49.902;8.600;2022-12-18T15:30:32;-2.80;99.90
4985;DHT22;2509;49.902;8.600;2022-12-18T15:33:35;-2.80;99.90
4985;DHT22;2509;49.902;8.600;2022-12-18T15:36:40;-2.90;99.90
4985;DHT22;2509;49.902;8.600;2022-12-18T15:39:41;-2.90;99.90
4985;DHT22;2509;49.902;8.600;2022-12-18T15:42:44;-2.90;99.90
4985;DHT22;2509;49.902;8.600;2022-12-18T15:46:06;-3.00;99.90
4985;DHT22;2509;49.902;8.600;2022-12-18T15:49:08;-3.00;99.90
4985;DHT22;2509;49.902;8.600;2022-12-18T15:52:12;-2.90;99.90
4985;DHT22;2509;49.902;8.600;2022-12-18T15:56:01;-2.90;99.90
4985;DHT22;2509;49.902;8.600;2022-12-18T16:03:18;-3.00;99.90
4985;DHT22;2509;49.902;8.600;2022-12-18T16:06:20;-3.00;99.90
4985;DHT22;2509;49.902;8.600;2022-12-18T16:09:24;-3.00;99.90
4985;DHT22;2509;49.902;8.600;2022-12-18T16:12:26;-3.00;99.90
4985;DHT22;2509;49.902;8.600;2022-12-18T16:15:27;-3.10;99.90
4985;DHT22;2509;49.902;8.600;2022-12-18T16:18:29;-3.00;99.90
4985;DHT22;2509;49.902;8.600;2022-12-18T16:21:31;-3.10;99.90
4985;DHT22;2509;49.902;8.600;2022-12-18T16:24:34;-3.10;99.90
4985;DHT22;2509;49.902;8.600;2022-12-18T16:27:37;-3.10;99.90
4985;DHT22;2509;49.902;8.600;2022-12-18T16:30:39;-3.10;99.90
4985;DHT22;2509;49.902;8.600;2022-12-18T16:33:41;-3.10;99.90
4985;DHT22;2509;49.902;8.600;2022-12-18T16:36:43;-3.10;99.90
4985;DHT22;2509;49.902;8.600;2022-12-18T16:39:46;-3.10;99.90
4985;DHT22;2509;49.902;8.600;2022-12-18T16:42:48;-3.10;99.90
4985;DHT22;2509;49.902;8.600;2022-12-18T16:45:50;-3.10;99.90
4985;DHT22;2509;49.902;8.600;2022-12-18T16:48:52;-3.10;99.90
4985;DHT22;2509;49.902;8.600;2022-12-18T16:51:55;-3.00;99.90
4985;DHT22;2509;49.902;8.600;2022-12-18T16:54:58;-3.00;99.90
4985;DHT22;2509;49.902;8.600;2022-12-18T16:58:00;-3.00;99.90
4985;DHT22;2509;49.902;8.600;2022-12-18T17:01:06;-3.00;99.90
4985;DHT22;2509;49.902;8.600;2022-12-18T17:04:08;-3.10;99.90
4985;DHT22;2509;49.902;8.600;2022-12-18T17:07:11;-3.10;99.90
4985;DHT22;2509;49.902;8.600;2022-12-18T17:10:14;-3.00;99.90
4985;DHT22;2509;49.902;8.600;2022-12-18T17:13:16;-3.00;99.90
4985;DHT22;2509;49.902;8.600;2022-12-18T17:16:18;-3.10;99.90
4985;DHT22;2509;49.902;8.600;2022-12-18T17:19:20;-3.10;99.90
4985;DHT22;2509;49.902;8.600;2022-12-18T17:22:22;-3.20;99.90
4985;DHT22;2509;49.902;8.600;2022-12-18T17:25:25;-3.10;99.90
4985;DHT22;2509;49.902;8.600;2022-12-18T17:28:27;-3.20;99.90
4985;DHT22;2509;49.902;8.600;2022-12-18T17:31:29;-3.20;99.90
4985;DHT22;2509;49.902;8.600;2022-12-18T17:34:31;-3.20;99.90
4985;DHT22;2509;49.902;8.600;2022-12-18T17:37:33;-3.20;99.90
4985;DHT22;2509;49.902;8.600;2022-12-18T17:40:36;-3.20;99.90
4985;DHT22;2509;49.902;8.600;2022-12-18T17:43:38;-3.20;99.90
4985;DHT22;2509;49.902;8.600;2022-12-18T17:46:45;-3.20;99.90
4985;DHT22;2509;49.902;8.600;2022-12-18T17:49:46;-3.20;99.90
4985;DHT22;2509;49.902;8.600;2022-12-18T17:52:48;-3.20;99.90
4985;DHT22;2509;49.902;8.600;2022-12-18T17:55:54;-3.20;99.90
4985;DHT22;2509;49.902;8.600;2022-12-18T17:58:56;-3.10;99.90
4985;DHT22;2509;49.902;8.600;2022-12-18T18:01:58;-3.10;99.90
4985;DHT22;2509;49.902;8.600;2022-12-18T18:05:00;-3.10;99.90
4985;DHT22;2509;49.902;8.600;2022-12-18T18:08:01;-3.10;99.90
4985;DHT22;2509;49.902;8.600;2022-12-18T18:11:06;-3.10;99.90
4985;DHT22;2509;49.902;8.600;2022-12-18T18:14:26;-3.10;99.90
4985;DHT22;2509;49.902;8.600;2022-12-18T18:17:28;-3.00;99.90
4985;DHT22;2509;49.902;8.600;2022-12-18T18:20:30;-3.00;99.90
4985;DHT22;2509;49.902;8.600;2022-12-18T18:23:32;-3.00;99.90
4985;DHT22;2509;49.902;8.600;2022-12-18T18:26:36;-3.00;99.90
4985;DHT22;2509;49.902;8.600;2022-12-18T18:29:38;-2.90;99.90
4985;DHT22;2509;49.902;8.600;2022-12-18T18:32:40;-2.90;99.90
4985;DHT22;2509;49.902;8.600;2022-12-18T18:35:42;-2.90;99.90
4985;DHT22;2509;49.902;8.600;2022-12-18T18:38:44;-2.90;99.90
4985;DHT22;2509;49.902;8.600;2022-12-18T18:41:47;-2.90;99.90
4985;DHT22;2509;49.902;8.600;2022-12-18T18:44:49;-2.90;99.90
4985;DHT22;2509;49.902;8.600;2022-12-18T18:47:51;-2.90;99.90
4985;DHT22;2509;49.902;8.600;2022-12-18T18:50:56;-2.80;99.90
4985;DHT22;2509;49.902;8.600;2022-12-18T18:53:58;-2.80;99.90
4985;DHT22;2509;49.902;8.600;2022-12-18T18:57:02;-2.80;99.90
4985;DHT22;2509;49.902;8.600;2022-12-18T19:00:05;-2.80;99.90
4985;DHT22;2509;49.902;8.600;2022-12-18T19:03:07;-2.80;99.90
4985;DHT22;2509;49.902;8.600;2022-12-18T19:06:13;-2.90;99.90
4985;DHT22;2509;49.902;8.600;2022-12-18T19:09:15;-2.90;99.90
4985;DHT22;2509;49.902;8.600;2022-12-18T19:12:18;-2.90;99.90
4985;DHT22;2509;49.902;8.600;2022-12-18T19:15:37;-2.80;99.90
4985;DHT22;2509;49.902;8.600;2022-12-18T19:18:39;-2.80;99.90
4985;DHT22;2509;49.902;8.600;2022-12-18T19:21:41;-2.80;99.90
4985;DHT22;2509;49.902;8.600;2022-12-18T19:24:43;-2.80;99.90
4985;DHT22;2509;49.902;8.600;2022-12-18T19:27:46;-2.80;99.90
4985;DHT22;2509;49.902;8.600;2022-12-18T19:30:50;-2.80;99.90
4985;DHT22;2509;49.902;8.600;2022-12-18T19:33:51;-2.80;99.90
4985;DHT22;2509;49.902;8.600;2022-12-18T19:36:53;-2.70;99.90
4985;DHT22;2509;49.902;8.600;2022-12-18T19:39:55;-2.70;99.90
4985;DHT22;2509;49.902;8.600;2022-12-18T19:42:58;-2.70;99.90
4985;DHT22;2509;49.902;8.600;2022-12-18T19:46:00;-2.70;99.90
4985;DHT22;2509;49.902;8.600;2022-12-18T19:49:03;-2.70;99.90
4985;DHT22;2509;49.902;8.600;2022-12-18T19:52:05;-2.70;99.90
4985;DHT22;2509;49.902;8.600;2022-12-18T19:55:08;-2.70;99.90
4985;DHT22;2509;49.902;8.600;2022-12-18T19:58:11;-2.70;99.90
4985;DHT22;2509;49.902;8.600;2022-12-18T20:01:14;-2.60;99.90
4985;DHT22;2509;49.902;8.600;2022-12-18T20:04:16;-2.60;99.90
4985;DHT22;2509;49.902;8.600;2022-12-18T20:07:17;-2.60;99.90
4985;DHT22;2509;49.902;8.600;2022-12-18T20:10:19;-2.70;99.90
4985;DHT22;2509;49.902;8.600;2022-12-18T20:13:23;-2.60;99.90